Time;durP1;ratioP1;P1;durP2;ratioP2;P2;SDS_P1;SDS_P2;PMS_P1;PMS_P2;Temp;Humidity;BMP_temperature;BMP_pressure;BME280_temperature;BME280_humidity;BME280_pressure;Samples;Min_cycle;Max_cycle;Signal;HPM_P1;HPM_P2
2021/03/27 00:02:20;;;;;;;8.05;4.75;;;;;;;10.41;49.04;99868.88;8853766;33;20221;-74
2021/03/27 00:07:31;;;;;;;6.38;4.53;;;;;;;10.44;48.94;99866.75;8853310;33;20232;-74
2021/03/27 00:12:44;;;;;;;8.20;4.80;;;;;;;10.39;49.06;99861.81;8852642;33;20228;-74
2021/03/27 00:17:53;;;;;;;9.13;5.18;;;;;;;10.39;49.01;99850.19;8883724;33;20259;-74
2021/03/27 00:23:02;;;;;;;10.05;5.07;;;;;;;10.30;49.13;99840.28;8913530;33;20833;-74
2021/03/27 00:28:13;;;;;;;6.32;3.72;;;;;;;10.38;49.03;99825.19;8913257;33;20232;-74
2021/03/27 00:33:16;;;;;;;9.20;4.90;;;;;;;10.37;48.85;99819.97;8912747;33;20264;-74
2021/03/27 00:38:34;;;;;;;6.82;4.28;;;;;;;10.25;49.30;99805.78;8911784;33;20230;-74
2021/03/27 00:43:42;;;;;;;5.97;3.42;;;;;;;10.14;49.50;99797.84;8912288;33;20213;-69
2021/03/27 00:48:52;;;;;;;8.13;4.63;;;;;;;10.23;49.25;99798.84;8912132;33;20221;-75
2021/03/27 00:54:04;;;;;;;8.02;4.72;;;;;;;10.16;49.59;99794.03;8912054;33;20229;-74
2021/03/27 00:59:20;;;;;;;4.60;2.78;;;;;;;10.07;49.47;99784.13;8910452;33;20227;-74
2021/03/27 01:04:33;;;;;;;8.82;4.55;;;;;;;10.10;49.56;99770.44;8886348;33;20216;-74
2021/03/27 01:10:01;;;;;;;7.10;4.70;;;;;;;10.20;49.30;99766.91;8911816;33;20237;-74
2021/03/27 01:15:26;;;;;;;8.75;4.60;;;;;;;10.40;49.14;99755.25;8911476;33;20260;-74
2021/03/27 01:20:49;;;;;;;7.55;4.30;;;;;;;10.21;49.83;99761.44;8886221;33;21442;-74
2021/03/27 01:25:58;;;;;;;8.15;5.45;;;;;;;10.08;50.53;99766.19;8916490;33;20252;-74
2021/03/27 01:31:09;;;;;;;9.65;4.80;;;;;;;9.84;53.48;99772.69;8915912;33;20226;-74
2021/03/27 01:36:16;;;;;;;9.25;4.07;;;;;;;9.56;56.39;99800.22;8916274;33;21036;-74
2021/03/27 01:41:34;;;;;;;6.32;3.03;;;;;;;8.36;62.67;99786.94;8916266;33;20225;-74
2021/03/27 01:47:04;;;;;;;6.03;4.18;;;;;;;8.03;65.56;99805.69;8916105;33;20229;-75
2021/03/27 01:52:29;;;;;;;6.78;3.97;;;;;;;7.88;67.21;99786.38;8916191;33;20227;-74
2021/03/27 01:57:46;;;;;;;3.65;3.17;;;;;;;7.74;67.42;99784.78;8915499;33;20295;-75
2021/03/27 02:02:57;;;;;;;9.60;5.70;;;;;;;7.71;69.61;99780.53;8915943;33;20273;-75
2021/03/27 02:08:11;;;;;;;6.50;3.97;;;;;;;7.22;71.78;99811.06;8915622;33;20230;-75
2021/03/27 02:13:24;;;;;;;8.88;5.97;;;;;;;6.87;73.96;99829.72;8915717;33;20267;-75
2021/03/27 02:18:33;;;;;;;10.55;6.57;;;;;;;6.73;76.99;99859.25;8902680;33;20221;-75
2021/03/27 02:24:00;;;;;;;13.40;7.38;;;;;;;6.07;80.09;99878.16;8915490;33;20229;-75
2021/03/27 02:29:54;;;;;;;13.40;7.80;;;;;;;5.11;81.92;99908.72;8914356;33;20260;-76
2021/03/27 02:35:06;;;;;;;3.25;2.35;;;;;;;4.02;84.12;99932.41;8903720;33;20328;-75
2021/03/27 02:40:15;;;;;;;3.47;2.20;;;;;;;4.30;83.66;99938.66;8915221;33;20260;-75
2021/03/27 02:45:23;;;;;;;2.10;1.60;;;;;;;4.11;82.63;99945.16;8915048;33;20217;-74
2021/03/27 02:50:48;;;;;;;2.67;1.85;;;;;;;4.21;82.91;99955.19;8914514;33;20730;-74
2021/03/27 02:56:13;;;;;;;2.70;1.80;;;;;;;4.07;82.47;99964.03;8914754;33;20267;-74
2021/03/27 03:01:22;;;;;;;1.80;1.63;;;;;;;4.37;82.04;99979.91;8914653;33;20266;-74
2021/03/27 03:06:29;;;;;;;4.05;2.10;;;;;;;4.44;81.81;99998.97;8914966;33;20225;-73
2021/03/27 03:11:44;;;;;;;4.25;2.58;;;;;;;4.55;81.08;100020.44;8888258;33;20225;-74
2021/03/27 03:16:58;;;;;;;5.43;3.03;;;;;;;4.19;82.17;100029.72;8914324;33;20707;-74
2021/03/27 03:22:23;;;;;;;4.53;2.70;;;;;;;4.58;82.69;100039.75;8915132;33;20315;-74
2021/03/27 03:27:40;;;;;;;7.13;4.03;;;;;;;4.08;82.89;100059.59;8916035;33;20229;-75
2021/03/27 03:32:49;;;;;;;7.18;3.33;;;;;;;4.12;82.82;100068.28;8914003;33;20240;-75
2021/03/27 03:38:16;;;;;;;10.98;5.85;;;;;;;4.03;82.65;100068.78;8913329;33;20229;-74
2021/03/27 03:43:28;;;;;;;9.30;4.27;;;;;;;3.75;82.34;100075.72;8913997;33;20248;-75
2021/03/27 03:48:50;;;;;;;9.77;4.63;;;;;;;3.78;82.81;100095.94;8913379;33;20228;-74
2021/03/27 03:54:20;;;;;;;10.17;5.23;;;;;;;3.88;82.93;100094.47;8913312;33;20746;-74
2021/03/27 03:59:40;;;;;;;11.25;6.13;;;;;;;3.83;82.35;100120.44;8922934;33;20222;-74
2021/03/27 04:04:48;;;;;;;8.33;3.83;;;;;;;3.71;82.11;100135.31;8888910;33;20244;-74
2021/03/27 04:09:56;;;;;;;8.13;3.80;;;;;;;3.66;82.06;100119.59;8879421;33;20296;-74
2021/03/27 04:15:22;;;;;;;5.72;3.15;;;;;;;3.56;82.10;100136.16;8874604;33;20237;-74
2021/03/27 04:20:33;;;;;;;6.47;3.77;;;;;;;3.55;81.83;100137.94;8889699;33;21933;-74
2021/03/27 04:25:43;;;;;;;9.63;5.20;;;;;;;3.85;81.95;100135.38;8913250;33;20766;-74
2021/03/27 04:30:57;;;;;;;7.83;3.77;;;;;;;3.86;81.89;100138.88;8912460;33;20216;-74
2021/03/27 04:36:07;;;;;;;8.30;4.57;;;;;;;3.77;82.00;100142.91;8912456;33;20717;-74
2021/03/27 04:41:26;;;;;;;12.57;5.00;;;;;;;3.91;81.33;100139.47;8911721;33;20232;-74
2021/03/27 04:46:34;;;;;;;17.53;6.90;;;;;;;4.01;81.19;100151.28;8912582;33;20363;-74
2021/03/27 04:51:51;;;;;;;15.52;7.13;;;;;;;3.73;81.81;100155.53;8911961;33;20229;-74
2021/03/27 04:57:09;;;;;;;10.37;5.93;;;;;;;3.69;80.78;100177.88;8912502;33;20240;-74
2021/03/27 05:02:15;;;;;;;13.07;4.37;;;;;;;3.89;79.91;100162.63;8912202;33;20229;-74
2021/03/27 05:07:24;;;;;;;23.27;9.53;;;;;;;3.65;80.82;100162.22;8911478;33;20867;-74
2021/03/27 05:12:49;;;;;;;17.07;9.23;;;;;;;4.03;79.67;100172.47;8911974;33;20236;-73
2021/03/27 05:18:42;;;;;;;12.33;5.33;;;;;;;3.60;78.39;100186.38;8899026;33;20233;-73
2021/03/27 05:24:11;;;;;;;17.53;8.37;;;;;;;4.04;77.77;100176.84;8895497;33;20327;-73
2021/03/27 05:29:39;;;;;;;13.37;6.63;;;;;;;3.96;77.53;100179.94;8910934;33;20226;-73
2021/03/27 05:34:47;;;;;;;16.00;6.83;;;;;;;3.78;76.86;100195.09;8910877;33;20265;-73
2021/03/27 05:40:01;;;;;;;16.03;8.63;;;;;;;4.24;77.26;100232.38;8911472;33;20221;-73
2021/03/27 05:46:15;;;;;;;9.50;4.07;;;;;;;3.10;78.96;100231.56;8907161;33;20772;-74
2021/03/27 05:51:59;;;;;;;5.20;2.37;;;;;;;2.16;81.68;100234.44;8910981;33;20264;-75
2021/03/27 05:57:25;;;;;;;7.23;3.37;;;;;;;2.46;82.44;100238.31;8910545;33;20903;-75
2021/03/27 06:02:47;;;;;;;13.90;5.80;;;;;;;2.88;80.33;100258.34;8910676;33;20217;-74
2021/03/27 06:08:09;;;;;;;10.47;4.57;;;;;;;3.03;80.19;100257.56;8910954;33;20273;-75
2021/03/27 06:13:27;;;;;;;15.03;5.97;;;;;;;3.41;79.26;100260.88;8915842;33;20225;-75
2021/03/27 06:19:05;;;;;;;14.23;6.80;;;;;;;3.66;79.14;100268.38;8890692;33;20229;-74
2021/03/27 06:24:40;;;;;;;8.83;4.47;;;;;;;3.83;78.91;100274.56;8915454;33;20216;-74
2021/03/27 06:30:19;;;;;;;11.33;4.53;;;;;;;4.11;76.73;100271.25;8915372;33;20218;-74
2021/03/27 06:35:41;;;;;;;7.47;4.17;;;;;;;4.11;75.67;100282.75;8890618;33;21801;-74
2021/03/27 06:41:05;;;;;;;10.73;5.27;;;;;;;4.07;76.60;100301.59;8890660;33;20228;-74
2021/03/27 06:46:39;;;;;;;13.17;7.73;;;;;;;4.10;74.26;100298.78;8915885;33;21446;-73
2021/03/27 06:52:17;;;;;;;17.63;8.60;;;;;;;4.66;74.66;100293.84;8903887;33;20233;-74
2021/03/27 06:57:45;;;;;;;15.77;7.40;;;;;;;5.08;72.29;100293.16;8735561;33;20252;-74
2021/03/27 07:03:53;;;;;;;15.88;6.95;;;;;;;4.93;71.49;100308.19;8915114;33;20232;-74
2021/03/27 07:09:33;;;;;;;11.67;5.03;;;;;;;4.82;73.44;100299.97;8914509;33;20213;-74
2021/03/27 07:15:10;;;;;;;12.60;6.97;;;;;;;4.50;73.28;100302.72;8905356;33;20738;-73
2021/03/27 07:20:54;;;;;;;12.17;6.63;;;;;;;4.29;74.18;100294.16;8856086;33;20229;-73
2021/03/27 07:26:46;;;;;;;19.50;9.03;;;;;;;4.33;73.02;100308.13;8915183;33;20229;-74
2021/03/27 07:31:53;;;;;;;18.13;8.20;;;;;;;4.59;74.03;100306.66;8900416;33;20224;-73
2021/03/27 07:37:57;;;;;;;11.93;5.43;;;;;;;4.74;72.54;100315.53;8914857;33;20237;-74
2021/03/27 07:44:09;;;;;;;21.17;8.03;;;;;;;4.61;72.70;100320.72;8889055;33;20229;-74
2021/03/27 07:49:54;;;;;;;22.10;7.23;;;;;;;4.48;71.38;100333.00;8832330;33;20225;-73
2021/03/27 07:55:58;;;;;;;10.00;6.03;;;;;;;4.66;70.78;100328.44;8903156;33;20236;-73
2021/03/27 08:01:36;;;;;;;12.10;6.40;;;;;;;4.39;71.26;100339.72;8732080;33;20227;-73
2021/03/27 08:06:49;;;;;;;8.80;4.63;;;;;;;4.95;70.81;100356.03;8903860;33;20255;-73
2021/03/27 08:12:28;;;;;;;5.70;3.43;;;;;;;5.26;69.38;100363.97;8913760;33;20249;-73
2021/03/27 08:17:44;;;;;;;8.48;4.72;;;;;;;5.68;68.40;100343.69;8901949;33;20239;-73
2021/03/27 08:23:11;;;;;;;10.43;4.40;;;;;;;5.36;67.98;100352.78;8914215;33;21461;-73
2021/03/27 08:29:42;;;;;;;6.20;3.92;;;;;;;5.90;66.06;100377.03;8894572;33;20761;-73
2021/03/27 08:35:25;;;;;;;8.07;5.13;;;;;;;6.39;64.59;100366.81;8900038;33;20221;-73
2021/03/27 08:41:17;;;;;;;8.95;5.32;;;;;;;5.65;67.55;100401.63;8885533;33;20848;-73
2021/03/27 08:46:44;;;;;;;4.63;1.63;;;;;;;2.35;79.07;100491.56;8853712;33;20214;-75
2021/03/27 08:52:03;;;;;;;3.30;1.70;;;;;;;1.63;81.67;100488.56;8853160;33;20226;-75
2021/03/27 08:57:31;;;;;;;2.90;1.80;;;;;;;0.69;84.99;100521.41;8871676;33;20225;-76
2021/03/27 09:03:01;;;;;;;4.80;1.90;;;;;;;0.68;86.59;100532.03;8882542;33;20237;-75
2021/03/27 09:08:36;;;;;;;1.80;1.60;;;;;;;1.44;86.13;100530.81;8907871;33;20742;-75
2021/03/27 09:13:51;;;;;;;1.53;1.30;;;;;;;1.48;85.66;100537.69;8899193;33;20236;-75
2021/03/27 09:19:19;;;;;;;1.03;0.93;;;;;;;1.76;83.87;100545.38;8879191;33;20230;-74
2021/03/27 09:24:31;;;;;;;4.37;1.80;;;;;;;2.12;83.35;100558.00;8887138;33;20221;-73
2021/03/27 09:29:47;;;;;;;3.97;1.93;;;;;;;1.94;82.56;100568.44;8858387;33;20222;-73
2021/03/27 09:35:33;;;;;;;5.10;2.30;;;;;;;2.47;82.04;100582.97;8874632;33;20718;-73
2021/03/27 09:41:23;;;;;;;3.67;2.00;;;;;;;2.87;80.94;100596.25;8906484;33;20314;-74
2021/03/27 09:46:37;;;;;;;3.93;1.73;;;;;;;2.78;78.96;100603.72;8895458;32;20217;-73
2021/03/27 09:52:36;;;;;;;1.90;1.43;;;;;;;2.92;79.05;100612.84;8915041;33;20221;-72
2021/03/27 09:57:55;;;;;;;1.43;1.23;;;;;;;3.54;76.38;100624.09;8900319;33;20628;-73
2021/03/27 10:03:09;;;;;;;1.80;1.70;;;;;;;3.97;73.76;100636.16;8891148;33;20221;-73
2021/03/27 10:08:19;;;;;;;3.70;1.80;;;;;;;3.91;73.06;100647.09;8913019;33;20226;-72
2021/03/27 10:13:50;;;;;;;2.17;1.23;;;;;;;3.91;72.88;100639.13;8915724;33;20225;-73
2021/03/27 10:19:01;;;;;;;1.70;1.60;;;;;;;4.52;74.23;100638.66;8852272;33;20234;-73
2021/03/27 10:24:20;;;;;;;1.93;1.80;;;;;;;5.12;68.41;100656.00;8915644;33;20638;-73
2021/03/27 10:29:37;;;;;;;10.57;1.90;;;;;;;4.33;70.20;100645.88;8916012;33;20217;-73
2021/03/27 10:34:42;;;;;;;5.57;2.73;;;;;;;4.34;70.05;100663.56;8916930;33;20261;-73
2021/03/27 10:40:06;;;;;;;5.37;3.33;;;;;;;4.54;70.93;100660.75;8912818;33;20781;-73
2021/03/27 10:45:37;;;;;;;6.23;3.00;;;;;;;4.48;68.74;100655.75;8916098;33;20240;-73
2021/03/27 10:50:52;;;;;;;5.28;2.42;;;;;;;5.00;68.36;100657.50;8864921;33;20229;-74
2021/03/27 10:56:28;;;;;;;2.97;2.23;;;;;;;4.93;67.68;100667.56;8908537;33;20231;-73
2021/03/27 11:02:23;;;;;;;4.43;3.38;;;;;;;5.73;66.18;100658.81;8882646;33;20225;-73
2021/03/27 11:08:14;;;;;;;8.73;3.97;;;;;;;7.51;62.83;100657.94;8894211;33;20226;-74
2021/03/27 11:14:06;;;;;;;7.63;3.70;;;;;;;5.97;63.62;100673.47;8796962;33;20228;-73
2021/03/27 11:19:39;;;;;;;13.40;4.03;;;;;;;5.13;66.13;100673.69;8854405;33;20278;-73
2021/03/27 11:25:05;;;;;;;4.45;2.90;;;;;;;4.73;68.31;100702.38;8915151;33;20221;-73
2021/03/27 11:30:16;;;;;;;9.33;2.53;;;;;;;3.91;68.34;100719.72;8913666;33;20944;-74
2021/03/27 11:35:26;;;;;;;2.90;1.87;;;;;;;4.00;63.99;100730.84;8914627;33;20230;-73
2021/03/27 11:40:39;;;;;;;1.00;1.00;;;;;;;4.32;63.06;100731.94;8914558;33;20225;-72
2021/03/27 11:45:48;;;;;;;1.10;1.10;;;;;;;4.40;62.58;100759.88;8881637;33;20221;-72
2021/03/27 11:50:58;;;;;;;1.43;1.10;;;;;;;4.45;64.15;100775.63;8913371;33;20221;-74
2021/03/27 11:56:09;;;;;;;2.87;1.50;;;;;;;3.20;74.58;100806.22;8909609;33;20274;-74
2021/03/27 12:01:13;;;;;;;1.00;0.90;;;;;;;3.80;74.26;100816.84;8913712;33;20279;-74
2021/03/27 12:06:28;;;;;;;1.77;1.40;;;;;;;4.20;73.48;100830.91;8913622;33;20222;-74
2021/03/27 12:12:03;;;;;;;1.63;1.30;;;;;;;5.06;72.34;100831.13;8913472;33;20765;-73
2021/03/27 12:17:22;;;;;;;1.60;1.30;;;;;;;6.56;68.31;100830.16;8913541;33;20217;-73
2021/03/27 12:22:32;;;;;;;3.60;1.38;;;;;;;7.18;68.17;100818.56;8913558;33;20721;-73
2021/03/27 12:27:43;;;;;;;1.65;1.30;;;;;;;8.44;61.28;100829.44;8913088;33;20225;-73
2021/03/27 12:32:55;;;;;;;2.78;1.10;;;;;;;7.94;59.04;100824.53;8910567;33;20229;-74
2021/03/27 12:38:28;;;;;;;5.68;2.20;;;;;;;6.17;62.20;100834.13;8912603;33;20233;-74
2021/03/27 12:43:34;;;;;;;1.60;1.40;;;;;;;5.72;64.87;100837.47;8912604;33;20705;-73
2021/03/27 12:48:53;;;;;;;5.60;1.77;;;;;;;4.52;63.40;100854.19;8912265;33;20777;-73
2021/03/27 12:54:08;;;;;;;4.18;2.22;;;;;;;4.65;65.73;100850.94;8910820;33;20240;-73
2021/03/27 12:59:36;;;;;;;1.42;1.33;;;;;;;4.61;66.63;100887.50;8911381;33;20225;-73
2021/03/27 13:05:08;;;;;;;2.73;1.43;;;;;;;4.52;65.05;100875.47;8912417;33;20221;-73
2021/03/27 13:10:39;;;;;;;2.08;1.30;;;;;;;5.39;60.57;100886.28;8910275;33;20232;-73
2021/03/27 13:15:50;;;;;;;5.85;1.25;;;;;;;6.99;58.10;100875.78;8908606;33;20233;-73
2021/03/27 13:21:30;;;;;;;2.55;1.40;;;;;;;7.71;55.51;100898.19;8916692;33;20225;-74
2021/03/27 13:26:41;;;;;;;1.52;1.30;;;;;;;9.38;51.45;100900.00;8860391;33;20222;-74
2021/03/27 13:31:51;;;;;;;1.25;1.15;;;;;;;10.14;49.84;100866.97;8858243;33;20233;-74
2021/03/27 13:37:07;;;;;;;1.25;1.10;;;;;;;10.31;49.81;100876.53;8858194;33;21507;-74
2021/03/27 13:42:34;;;;;;;2.13;1.23;;;;;;;7.13;55.61;100885.66;8858799;33;20863;-73
2021/03/27 13:47:44;;;;;;;6.68;2.03;;;;;;;6.18;58.90;100897.19;8855886;33;20342;-74
2021/03/27 13:53:19;;;;;;;3.42;2.08;;;;;;;6.18;59.18;100886.50;8855703;33;20237;-73
2021/03/27 13:58:26;;;;;;;3.03;2.22;;;;;;;5.85;58.89;100869.69;8855763;33;20215;-73
2021/03/27 14:03:47;;;;;;;1.92;1.30;;;;;;;5.75;58.30;100887.09;8856005;33;20233;-73
2021/03/27 14:09:35;;;;;;;5.80;2.85;;;;;;;6.59;58.99;100885.16;8855256;33;20233;-74
2021/03/27 14:15:23;;;;;;;7.20;2.63;;;;;;;6.45;58.80;100893.09;8860704;33;20226;-73
2021/03/27 14:20:41;;;;;;;5.82;2.97;;;;;;;4.43;66.80;100954.88;8868554;33;20268;-73
2021/03/27 14:25:52;;;;;;;2.63;1.70;;;;;;;2.01;78.79;100969.19;8915397;33;20228;-75
2021/03/27 14:31:10;;;;;;;2.33;1.67;;;;;;;4.58;75.58;100948.81;8913987;33;20233;-75
2021/03/27 14:36:18;;;;;;;6.23;2.63;;;;;;;5.72;72.72;100944.97;8912883;33;20235;-75
2021/03/27 14:41:30;;;;;;;2.37;1.83;;;;;;;5.88;67.07;100949.50;8859320;33;20245;-75
2021/03/27 14:47:24;;;;;;;3.83;1.88;;;;;;;6.09;68.36;100956.38;8836094;33;20612;-74
2021/03/27 14:52:39;;;;;;;5.18;2.42;;;;;;;6.20;66.95;100965.59;8695938;33;20229;-74
2021/03/27 14:57:49;;;;;;;6.00;2.60;;;;;;;5.36;65.08;100968.16;8686789;33;20238;-74
2021/03/27 15:03:04;;;;;;;3.72;1.75;;;;;;;5.75;64.50;100997.25;8677968;33;20493;-74
2021/03/27 15:08:25;;;;;;;1.58;1.48;;;;;;;5.18;67.98;101013.41;8676501;33;21952;-73
2021/03/27 15:13:43;;;;;;;1.23;1.13;;;;;;;6.87;67.90;101020.69;8664150;33;20675;-74
2021/03/27 15:18:52;;;;;;;2.78;1.33;;;;;;;7.58;65.05;101017.53;8626214;33;20576;-73
2021/03/27 15:24:02;;;;;;;1.90;1.38;;;;;;;8.07;64.07;101019.97;8575135;33;21822;-74
2021/03/27 15:29:17;;;;;;;2.28;1.30;;;;;;;9.00;62.73;101021.34;8598695;33;20188;-74
2021/03/27 15:34:24;;;;;;;2.72;1.40;;;;;;;7.86;61.23;101013.22;8602269;33;20161;-74
2021/03/27 15:39:46;;;;;;;2.90;1.60;;;;;;;7.89;60.06;101037.13;8603952;33;20266;-73
2021/03/27 15:45:32;;;;;;;0.77;0.77;;;;;;;5.97;62.74;101050.34;8668706;33;20753;-73
2021/03/27 15:50:43;;;;;;;2.30;1.50;;;;;;;5.81;65.25;101060.06;8666758;33;20409;-73
2021/03/27 15:56:02;;;;;;;3.63;1.75;;;;;;;5.46;68.74;101062.72;8670717;33;20413;-73
2021/03/27 16:01:10;;;;;;;6.45;2.35;;;;;;;5.06;70.09;101094.75;8673603;33;20972;-73
2021/03/27 16:06:35;;;;;;;4.63;2.10;;;;;;;3.99;74.00;101099.50;8669986;33;20924;-74
2021/03/27 16:12:00;;;;;;;2.55;1.83;;;;;;;3.37;76.96;101071.91;8675736;33;20462;-73
2021/03/27 16:17:52;;;;;;;2.35;1.80;;;;;;;3.50;76.97;101072.31;8675445;33;20414;-74
2021/03/27 16:23:00;;;;;;;4.83;3.23;;;;;;;4.07;78.23;101115.13;8674680;33;21511;-74
2021/03/27 16:28:19;;;;;;;3.47;2.08;;;;;;;4.06;78.40;101105.41;8667693;33;20409;-74
2021/03/27 16:33:32;;;;;;;3.03;1.83;;;;;;;4.00;76.90;101113.66;8629978;33;20490;-74
2021/03/27 16:39:02;;;;;;;2.45;1.80;;;;;;;4.15;74.58;101118.34;8653998;33;20475;-74
2021/03/27 16:44:30;;;;;;;5.80;2.60;;;;;;;3.73;74.21;101121.88;8654077;33;20182;-74
2021/03/27 16:49:39;;;;;;;6.60;2.92;;;;;;;3.49;74.47;101118.41;8630033;33;20288;-74
2021/03/27 16:54:53;;;;;;;6.77;2.77;;;;;;;4.22;73.09;101137.53;8653498;33;20147;-73
2021/03/27 17:00:14;;;;;;;4.78;2.90;;;;;;;4.91;71.60;101129.19;8652926;33;20427;-74
2021/03/27 17:05:29;;;;;;;8.15;2.75;;;;;;;4.33;71.94;101144.16;8659633;33;20411;-74
2021/03/27 17:10:40;;;;;;;6.60;2.63;;;;;;;4.13;72.45;101149.44;8659046;33;20431;-74
2021/03/27 17:16:04;;;;;;;6.10;2.80;;;;;;;4.08;72.23;101154.94;8632897;33;20699;-74
2021/03/27 17:21:23;;;;;;;5.75;3.55;;;;;;;4.35;73.75;101162.69;8656123;33;20944;-73
2021/03/27 17:26:54;;;;;;;7.03;3.60;;;;;;;4.18;74.55;101174.06;8653025;33;21603;-74
2021/03/27 17:32:12;;;;;;;7.70;3.45;;;;;;;4.08;73.77;101176.22;8631163;33;20448;-74
2021/03/27 17:37:27;;;;;;;6.85;3.30;;;;;;;3.56;74.28;101180.97;8623345;33;20692;-74
2021/03/27 17:42:42;;;;;;;4.25;2.55;;;;;;;3.38;73.21;101181.72;8583270;33;20151;-74
2021/03/27 17:47:53;;;;;;;8.10;3.90;;;;;;;3.53;72.88;101191.72;8594725;33;20473;-74
2021/03/27 17:53:01;;;;;;;11.25;3.30;;;;;;;3.77;72.94;101197.00;8598183;33;21849;-73
2021/03/27 17:58:07;;;;;;;5.17;2.17;;;;;;;3.46;72.30;101207.03;8635839;33;20189;-73
2021/03/27 18:03:27;;;;;;;11.23;4.55;;;;;;;3.57;72.05;101219.06;8647124;33;20738;-73
2021/03/27 18:08:45;;;;;;;7.65;3.30;;;;;;;3.56;71.74;101251.84;8660528;33;20196;-73
2021/03/27 18:14:00;;;;;;;16.07;3.47;;;;;;;3.80;70.96;101250.03;8656166;33;20404;-74
2021/03/27 18:19:12;;;;;;;5.63;2.90;;;;;;;4.11;69.63;101241.72;8657310;33;20542;-75
2021/03/27 18:24:28;;;;;;;10.80;3.83;;;;;;;4.14;70.46;101253.09;8641575;33;20503;-75
2021/03/27 18:29:42;;;;;;;6.17;3.30;;;;;;;3.83;68.25;101265.88;8591332;33;20470;-75
2021/03/27 18:34:51;;;;;;;9.00;3.38;;;;;;;3.73;67.34;101271.56;8598190;33;20187;-74
2021/03/27 18:40:05;;;;;;;10.13;2.30;;;;;;;3.95;66.94;101274.25;8573791;33;20483;-75
2021/03/27 18:45:11;;;;;;;5.77;2.60;;;;;;;3.80;67.02;101288.13;8609155;33;21230;-74
2021/03/27 18:50:33;;;;;;;10.02;2.53;;;;;;;3.77;67.00;101293.56;8611626;33;20471;-75
2021/03/27 18:55:37;;;;;;;3.10;2.50;;;;;;;3.98;68.35;101299.84;8634440;33;20431;-75
2021/03/27 19:00:49;;;;;;;4.83;2.53;;;;;;;3.89;69.32;101308.16;8632460;33;20495;-75
2021/03/27 19:06:07;;;;;;;5.65;2.70;;;;;;;3.76;68.72;101315.75;8613748;33;20468;-75
2021/03/27 19:11:20;;;;;;;5.43;2.63;;;;;;;3.71;68.88;101321.22;8624390;33;20158;-75
2021/03/27 19:16:28;;;;;;;8.38;3.08;;;;;;;3.73;68.93;101332.69;8630435;33;21179;-75
2021/03/27 19:21:42;;;;;;;6.00;2.90;;;;;;;3.69;70.06;101340.81;8617024;33;20454;-75
2021/03/27 19:26:53;;;;;;;10.00;3.17;;;;;;;3.50;70.40;101335.31;8630758;33;20426;-75
2021/03/27 19:32:02;;;;;;;11.63;3.30;;;;;;;3.54;71.63;101344.03;8659092;33;20401;-75
2021/03/27 19:37:09;;;;;;;5.73;3.10;;;;;;;3.48;71.44;101350.41;8647276;33;20143;-76
2021/03/27 19:42:23;;;;;;;7.03;3.20;;;;;;;3.45;70.27;101351.41;8652092;33;20399;-76
2021/03/27 19:47:33;;;;;;;7.07;3.13;;;;;;;3.47;69.19;101361.97;8657000;33;20146;-76
2021/03/27 19:52:46;;;;;;;10.02;3.70;;;;;;;3.44;68.44;101352.34;8608030;33;20139;-75
2021/03/27 19:58:05;;;;;;;12.17;3.40;;;;;;;3.60;67.33;101367.72;8622112;33;20460;-75
2021/03/27 20:03:17;;;;;;;11.10;3.57;;;;;;;3.64;67.00;101366.69;8651493;33;20524;-75
2021/03/27 20:08:28;;;;;;;4.80;4.15;;;;;;;3.78;67.24;101376.81;8644871;33;20419;-75
2021/03/27 20:13:46;;;;;;;8.87;3.57;;;;;;;3.69;66.26;101384.19;8649490;33;20181;-75
2021/03/27 20:18:55;;;;;;;8.25;3.92;;;;;;;3.84;67.49;101400.50;8645084;33;20435;-75
2021/03/27 20:24:19;;;;;;;11.95;4.40;;;;;;;3.71;67.21;101402.75;8662473;33;20408;-75
2021/03/27 20:29:31;;;;;;;9.35;3.38;;;;;;;3.60;68.44;101405.78;8664743;33;20603;-75
2021/03/27 20:35:09;;;;;;;7.05;3.70;;;;;;;3.65;67.98;101402.97;8650532;33;20548;-75
2021/03/27 20:40:20;;;;;;;13.90;3.90;;;;;;;3.73;67.34;101415.06;8642486;33;20557;-75
2021/03/27 20:45:48;;;;;;;6.97;3.83;;;;;;;3.69;67.35;101413.41;8638791;33;20470;-74
2021/03/27 20:51:00;;;;;;;8.82;4.30;;;;;;;3.69;67.77;101426.72;8622903;33;20199;-75
2021/03/27 20:56:19;;;;;;;13.40;4.90;;;;;;;3.75;67.35;101422.09;8619509;33;20143;-75
2021/03/27 21:01:41;;;;;;;11.52;4.72;;;;;;;3.76;68.43;101421.16;8611359;33;20146;-75
2021/03/27 21:06:53;;;;;;;13.60;4.90;;;;;;;3.80;66.32;101423.66;8620837;33;20651;-75
2021/03/27 21:12:01;;;;;;;6.85;4.30;;;;;;;3.79;65.27;101423.75;8652827;33;20158;-75
2021/03/27 21:17:06;;;;;;;7.63;4.25;;;;;;;3.65;65.73;101426.91;8653139;33;21186;-74
2021/03/27 21:22:25;;;;;;;11.30;5.07;;;;;;;3.54;64.59;101437.00;8653297;33;20715;-75
2021/03/27 21:28:03;;;;;;;9.93;4.83;;;;;;;3.68;64.21;101451.56;8653715;33;20420;-75
2021/03/27 21:33:34;;;;;;;10.82;5.43;;;;;;;3.62;63.41;101456.22;8658605;33;20429;-75
2021/03/27 21:39:03;;;;;;;11.10;4.95;;;;;;;3.56;62.96;101459.94;8649732;33;20177;-75
2021/03/27 21:44:48;;;;;;;15.20;5.73;;;;;;;3.48;62.55;101469.97;8656338;33;20425;-75
2021/03/27 21:49:59;;;;;;;16.40;5.53;;;;;;;3.37;62.55;101462.38;8654309;33;20173;-74
2021/03/27 21:55:14;;;;;;;16.60;7.40;;;;;;;3.41;62.86;101463.16;8656442;33;20423;-74
2021/03/27 22:00:24;;;;;;;16.83;6.07;;;;;;;3.41;62.22;101471.97;8653246;33;20178;-74
2021/03/27 22:05:33;;;;;;;11.83;5.83;;;;;;;3.22;62.51;101478.84;8655261;33;20453;-75
2021/03/27 22:10:42;;;;;;;15.75;7.97;;;;;;;3.40;62.28;101477.34;8656330;33;20447;-74
2021/03/27 22:16:05;;;;;;;18.07;7.43;;;;;;;3.20;62.95;101483.31;8631082;33;20190;-74
2021/03/27 22:21:14;;;;;;;7.97;5.40;;;;;;;3.27;62.13;101476.91;8655467;33;20421;-74
2021/03/27 22:26:38;;;;;;;14.20;6.60;;;;;;;3.32;62.00;101474.97;8656317;33;20492;-75
2021/03/27 22:31:44;;;;;;;13.20;6.83;;;;;;;3.33;61.54;101482.00;8656588;33;20288;-74
2021/03/27 22:36:49;;;;;;;19.95;7.13;;;;;;;3.35;61.21;101482.81;8657419;33;20182;-75
2021/03/27 22:42:06;;;;;;;12.00;6.40;;;;;;;3.33;61.33;101482.00;8655412;33;20178;-74
2021/03/27 22:47:30;;;;;;;11.47;5.73;;;;;;;3.28;61.48;101474.16;8649811;33;20463;-75
2021/03/27 22:53:02;;;;;;;6.53;4.80;;;;;;;3.32;61.04;101482.94;8644314;33;20419;-74
2021/03/27 22:58:29;;;;;;;12.27;4.80;;;;;;;3.14;61.33;101497.66;8652789;33;20902;-74
2021/03/27 23:03:50;;;;;;;11.50;5.50;;;;;;;3.26;61.21;101484.00;8654075;33;20405;-74
2021/03/27 23:09:07;;;;;;;12.83;5.93;;;;;;;3.21;62.09;101483.28;8655689;33;20143;-75
2021/03/27 23:14:11;;;;;;;12.70;5.23;;;;;;;3.01;62.17;101489.22;8646630;33;20414;-75
2021/03/27 23:19:28;;;;;;;12.27;5.53;;;;;;;2.92;62.44;101486.00;8637194;33;20151;-73
2021/03/27 23:24:39;;;;;;;16.27;5.57;;;;;;;2.88;62.51;101498.50;8638631;33;20145;-74
2021/03/27 23:29:52;;;;;;;10.07;5.33;;;;;;;2.89;62.25;101504.69;8570377;33;20153;-74
2021/03/27 23:35:01;;;;;;;13.83;4.93;;;;;;;2.73;62.84;101512.25;8649060;33;20619;-74
2021/03/27 23:40:16;;;;;;;8.93;4.73;;;;;;;2.73;62.35;101506.94;8656644;33;20548;-74
2021/03/27 23:45:29;;;;;;;11.80;5.20;;;;;;;2.68;62.93;101493.78;8656483;33;21513;-74
2021/03/27 23:50:33;;;;;;;19.00;5.77;;;;;;;2.67;62.76;101496.50;8657347;33;20402;-74
2021/03/27 23:56:00;;;;;;;12.07;5.47;;;;;;;2.64;62.45;101497.47;8656581;33;21950;-74
